Aviation Digital Data Service (ADDS)

Output produced by TAFs form (1601 UTC 25 October 2014)
found at http://www.aviationweather.gov/adds/tafs/
 
KMDT 251535Z 2516/2612 27007KT P6SM SCT050 SCT250 
     FM251800 27009G18KT P6SM SCT050